Time;durP1;ratioP1;P1;durP2;ratioP2;P2;SDS_P1;SDS_P2;PMS_P1;PMS_P2;Temp;Humidity;BMP_temperature;BMP_pressure;BME280_temperature;BME280_humidity;BME280_pressure;Samples;Min_cycle;Max_cycle;Signal;HPM_P1;HPM_P2
2021/12/10 00:01:41;;;;;;;;;;;;;;;-0.15;100.00;94834.28;5031327;28;19921;-80
2021/12/10 00:04:09;;;;;;;;;;;;;;;-0.25;100.00;94826.94;5030560;28;19928;-77
2021/12/10 00:06:37;;;;;;;;;;;;;;;-0.21;100.00;94827.34;5033767;28;20047;-79
2021/12/10 00:09:06;;;;;;;;;;;;;;;-0.23;100.00;94822.34;5024913;28;19920;-78
2021/12/10 00:11:32;;;;;;;;;;;;;;;-0.17;100.00;94820.75;5006760;28;19921;-78
2021/12/10 00:14:00;;;;;;;;;;;;;;;-0.17;100.00;94802.66;5004411;28;19957;-79
2021/12/10 00:16:26;;;;;;;;;;;;;;;-0.18;100.00;94799.28;5021687;28;19921;-79
2021/12/10 00:18:57;;;;;;;;;;;;;;;-0.22;100.00;94794.72;5023255;28;19941;-78
2021/12/10 00:21:24;;;;;;;;;;;;;;;-0.31;100.00;94800.13;5006248;28;19921;-79
2021/12/10 00:23:50;;;;;;;;;;;;;;;-0.28;100.00;94783.41;5030089;28;19917;-79
2021/12/10 00:26:17;;;;;;;;;;;;;;;-0.27;100.00;94787.56;5034669;28;19947;-79
2021/12/10 00:28:42;;;;;;;;;;;;;;;-0.32;100.00;94780.47;5034514;28;20023;-78
2021/12/10 00:31:31;;;;;;;;;;;;;;;-0.16;100.00;94775.81;5034510;28;19925;-77
2021/12/10 00:33:59;;;;;;;;;;;;;;;-0.22;100.00;94771.47;5030603;28;19921;-77
2021/12/10 00:36:24;;;;;;;;;;;;;;;-0.28;100.00;94760.94;5003136;28;19921;-77
2021/12/10 00:38:51;;;;;;;;;;;;;;;-0.27;100.00;94764.31;5018617;28;20001;-77
2021/12/10 00:41:17;;;;;;;;;;;;;;;-0.25;100.00;94746.06;5005245;28;19932;-78
2021/12/10 00:43:45;;;;;;;;;;;;;;;-0.28;100.00;94744.66;5031120;28;19922;-77
2021/12/10 00:46:12;;;;;;;;;;;;;;;-0.15;100.00;94743.84;5012840;28;19928;-78
2021/12/10 00:48:38;;;;;;;;;;;;;;;-0.16;100.00;94737.06;5030048;28;19925;-77
2021/12/10 00:51:05;;;;;;;;;;;;;;;-0.17;100.00;94725.13;5030719;28;19968;-78
2021/12/10 00:53:30;;;;;;;;;;;;;;;-0.20;100.00;94731.53;5030645;28;19928;-78
2021/12/10 00:55:55;;;;;;;;;;;;;;;-0.20;100.00;94720.41;5027729;28;19922;-77
2021/12/10 00:58:22;;;;;;;;;;;;;;;-0.23;100.00;94720.78;5017068;28;19928;-77
2021/12/10 01:00:49;;;;;;;;;;;;;;;-0.32;100.00;94712.50;5017677;28;19941;-77
2021/12/10 01:03:19;;;;;;;;;;;;;;;-0.37;100.00;94707.94;5024667;28;19921;-80
2021/12/10 01:05:47;;;;;;;;;;;;;;;-0.44;100.00;94704.56;5024471;28;19943;-79
2021/12/10 01:08:12;;;;;;;;;;;;;;;-0.42;100.00;94702.59;5024617;28;19929;-79
2021/12/10 01:10:40;;;;;;;;;;;;;;;-0.40;100.00;94695.41;5027717;28;19971;-79
2021/12/10 01:13:11;;;;;;;;;;;;;;;-0.37;100.00;94689.84;5029576;28;20008;-79
2021/12/10 01:15:47;;;;;;;;;;;;;;;-0.37;100.00;94695.03;5010705;28;20016;-78
2021/12/10 01:28:44;;;;;;;;;;;;;;;-0.17;100.00;94671.66;5027846;28;19922;-80
2021/12/10 01:31:10;;;;;;;;;;;;;;;-0.11;100.00;94681.19;5028390;28;19928;-79
2021/12/10 01:33:35;;;;;;;;;;;;;;;-0.08;100.00;94670.44;5028659;28;20365;-80
2021/12/10 01:36:07;;;;;;;;;;;;;;;-0.05;100.00;94651.16;5010899;28;19970;-80
2021/12/10 01:38:32;;;;;;;;;;;;;;;-0.03;100.00;94641.38;5033906;28;19944;-80
2021/12/10 01:41:00;;;;;;;;;;;;;;;-0.10;100.00;94648.38;5030915;28;19921;-79
2021/12/10 01:43:25;;;;;;;;;;;;;;;-0.12;100.00;94643.41;4993966;28;20400;-80
2021/12/10 01:45:53;;;;;;;;;;;;;;;0.00;100.00;94630.63;5014659;28;19932;-80
2021/12/10 01:48:20;;;;;;;;;;;;;;;-0.06;99.81;94636.59;5012210;28;19922;-80
2021/12/10 01:50:46;;;;;;;;;;;;;;;-0.07;99.43;94632.44;5010209;28;20005;-79
2021/12/10 01:53:16;;;;;;;;;;;;;;;-0.06;99.60;94632.22;5010841;28;19910;-78
2021/12/10 01:55:44;;;;;;;;;;;;;;;-0.06;99.89;94623.69;5007289;28;19997;-79
2021/12/10 01:58:13;;;;;;;;;;;;;;;-0.01;100.00;94618.69;4997399;28;19934;-76
2021/12/10 02:00:41;;;;;;;;;;;;;;;-0.07;98.39;94609.97;4992512;28;20017;-76
2021/12/10 02:03:06;;;;;;;;;;;;;;;-0.16;98.29;94590.56;5013057;28;20131;-76
2021/12/10 02:05:32;;;;;;;;;;;;;;;-0.11;98.03;94598.50;5009748;28;19918;-79
2021/12/10 02:07:58;;;;;;;;;;;;;;;-0.06;98.54;94610.75;5009400;28;20027;-78
2021/12/10 02:10:26;;;;;;;;;;;;;;;-0.14;98.82;94604.06;4990233;28;19921;-79
2021/12/10 02:12:54;;;;;;;;;;;;;;;-0.14;98.71;94605.84;5006556;28;19997;-78
2021/12/10 02:15:22;;;;;;;;;;;;;;;-0.13;98.56;94599.69;4989698;28;19922;-78
2021/12/10 02:17:48;;;;;;;;;;;;;;;-0.17;98.20;94593.34;4992013;28;19921;-78
2021/12/10 02:20:16;;;;;;;;;;;;;;;0.03;98.47;94586.25;5007748;28;19922;-78
2021/12/10 02:22:44;;;;;;;;;;;;;;;0.06;97.42;94580.69;5007563;28;19959;-78
2021/12/10 02:25:10;;;;;;;;;;;;;;;0.05;97.32;94576.47;5006152;28;19985;-78
2021/12/10 02:27:37;;;;;;;;;;;;;;;0.05;97.04;94566.16;5005625;28;19929;-78
2021/12/10 02:30:03;;;;;;;;;;;;;;;-0.01;96.63;94561.81;4989365;28;19929;-78
2021/12/10 02:32:29;;;;;;;;;;;;;;;0.12;97.46;94556.56;5004256;28;19933;-77
2021/12/10 02:34:54;;;;;;;;;;;;;;;0.12;97.10;94537.69;5003610;28;19921;-78
2021/12/10 02:37:20;;;;;;;;;;;;;;;0.15;96.85;94539.81;4987581;28;20171;-78
2021/12/10 02:39:47;;;;;;;;;;;;;;;0.20;96.78;94527.06;5004827;28;19925;-78
2021/12/10 02:42:13;;;;;;;;;;;;;;;0.15;96.50;94519.13;4986168;28;20271;-78
2021/12/10 02:44:39;;;;;;;;;;;;;;;0.05;96.56;94514.44;5004101;28;19932;-78
2021/12/10 02:47:04;;;;;;;;;;;;;;;0.05;96.75;94513.66;5004329;28;19921;-78
2021/12/10 02:49:31;;;;;;;;;;;;;;;0.21;96.97;94505.34;4990591;28;19964;-78
2021/12/10 02:51:57;;;;;;;;;;;;;;;0.20;96.65;94504.56;5012713;28;19921;-78
2021/12/10 02:54:33;;;;;;;;;;;;;;;0.25;97.00;94491.00;5023577;28;19968;-78
2021/12/10 02:57:00;;;;;;;;;;;;;;;0.39;96.22;94491.69;5024758;28;20020;-78
2021/12/10 02:59:25;;;;;;;;;;;;;;;0.44;95.69;94486.66;5023135;28;19925;-77
2021/12/10 03:01:51;;;;;;;;;;;;;;;0.40;95.59;94493.25;5022687;28;20067;-78
2021/12/10 03:04:17;;;;;;;;;;;;;;;0.24;96.23;94482.47;5024885;28;19921;-78
2021/12/10 03:06:45;;;;;;;;;;;;;;;0.24;96.32;94477.28;5028474;28;20400;-78
2021/12/10 03:09:12;;;;;;;;;;;;;;;0.13;96.51;94479.78;5025854;28;19921;-80
2021/12/10 03:11:38;;;;;;;;;;;;;;;0.22;96.39;94474.13;5025692;28;19921;-78
2021/12/10 03:14:09;;;;;;;;;;;;;;;0.21;96.92;94477.69;5022753;28;19984;-78
2021/12/10 03:16:38;;;;;;;;;;;;;;;0.18;96.67;94479.94;5007144;28;19949;-78
2021/12/10 03:19:03;;;;;;;;;;;;;;;0.31;96.03;94481.59;5022614;28;19968;-78
2021/12/10 03:21:29;;;;;;;;;;;;;;;0.25;96.63;94463.34;5024905;28;19921;-79
2021/12/10 03:23:54;;;;;;;;;;;;;;;0.36;96.40;94445.53;5025041;28;19929;-79
2021/12/10 03:26:21;;;;;;;;;;;;;;;0.15;96.09;94429.44;5027732;28;19921;-78
2021/12/10 03:28:48;;;;;;;;;;;;;;;-0.07;97.30;94423.09;5024577;28;20384;-77
2021/12/10 03:31:15;;;;;;;;;;;;;;;-0.20;97.81;94416.28;5025591;28;19948;-78
2021/12/10 03:33:41;;;;;;;;;;;;;;;-0.44;98.53;94415.25;5028282;28;19927;-78
2021/12/10 03:36:07;;;;;;;;;;;;;;;-0.47;98.46;94418.28;5026536;28;19944;-77
2021/12/10 03:38:33;;;;;;;;;;;;;;;-0.62;99.04;94415.22;5024513;28;19922;-80
2021/12/10 03:40:59;;;;;;;;;;;;;;;-0.85;99.50;94405.47;5024603;28;19921;-79
2021/12/10 03:43:25;;;;;;;;;;;;;;;-0.97;100.00;94399.34;5026826;28;19921;-80
2021/12/10 03:45:52;;;;;;;;;;;;;;;-1.08;100.00;94400.81;5026172;28;20247;-78
2021/12/10 03:48:22;;;;;;;;;;;;;;;-1.13;100.00;94391.13;5026354;28;20026;-82
2021/12/10 03:50:48;;;;;;;;;;;;;;;-1.28;100.00;94385.47;5033971;28;19909;-80
2021/12/10 03:53:14;;;;;;;;;;;;;;;-1.36;100.00;94394.22;5030517;28;19971;-80
2021/12/10 03:55:40;;;;;;;;;;;;;;;-1.41;100.00;94391.47;5028442;28;19921;-81
2021/12/10 03:58:06;;;;;;;;;;;;;;;-1.52;100.00;94389.53;5015880;28;19932;-83
2021/12/10 04:00:34;;;;;;;;;;;;;;;-1.57;100.00;94389.34;5033130;28;19921;-82
2021/12/10 04:02:59;;;;;;;;;;;;;;;-1.61;100.00;94383.84;5030998;28;19932;-81
2021/12/10 04:05:28;;;;;;;;;;;;;;;-1.61;100.00;94385.63;5029150;28;19921;-81
2021/12/10 04:07:54;;;;;;;;;;;;;;;-1.68;100.00;94393.38;5033224;28;19932;-80
2021/12/10 04:10:22;;;;;;;;;;;;;;;-1.75;100.00;94389.25;5032314;28;19976;-80
2021/12/10 04:12:50;;;;;;;;;;;;;;;-1.76;100.00;94388.47;5019467;28;19937;-80
2021/12/10 04:15:22;;;;;;;;;;;;;;;-1.70;100.00;94390.22;5033185;28;19937;-80
2021/12/10 04:17:49;;;;;;;;;;;;;;;-1.58;100.00;94386.00;5014955;28;19932;-83
2021/12/10 04:20:15;;;;;;;;;;;;;;;-1.68;100.00;94379.69;4994417;28;19976;-84
2021/12/10 04:22:46;;;;;;;;;;;;;;;-1.70;100.00;94385.06;5008496;28;20028;-83
2021/12/10 04:25:12;;;;;;;;;;;;;;;-1.70;100.00;94376.53;4991430;28;19921;-83
2021/12/10 04:27:38;;;;;;;;;;;;;;;-1.75;100.00;94363.47;5027145;28;19973;-84
2021/12/10 04:30:04;;;;;;;;;;;;;;;-1.80;100.00;94361.50;5018088;28;19921;-83
2021/12/10 04:32:29;;;;;;;;;;;;;;;-1.81;100.00;94362.50;5018190;28;19966;-84
2021/12/10 04:34:55;;;;;;;;;;;;;;;-1.86;100.00;94360.53;5028723;28;19975;-82
2021/12/10 04:37:20;;;;;;;;;;;;;;;-1.92;100.00;94352.84;5029037;28;19932;-81
2021/12/10 04:39:48;;;;;;;;;;;;;;;-1.94;100.00;94340.16;5028021;28;19932;-82
2021/12/10 04:42:15;;;;;;;;;;;;;;;-1.88;100.00;94333.41;5031863;28;20019;-82
2021/12/10 04:44:40;;;;;;;;;;;;;;;-1.86;100.00;94332.19;5033524;28;20397;-79
2021/12/10 04:47:06;;;;;;;;;;;;;;;-1.89;100.00;94316.34;5033814;28;19948;-83
2021/12/10 04:49:31;;;;;;;;;;;;;;;-1.88;100.00;94313.56;5053814;23;19943;-85
2021/12/10 04:51:57;;;;;;;;;;;;;;;-1.86;100.00;94309.00;5051967;28;19992;-86
2021/12/10 04:54:25;;;;;;;;;;;;;;;-1.87;100.00;94304.84;5029395;28;19921;-86
2021/12/10 04:56:54;;;;;;;;;;;;;;;-1.94;100.00;94311.81;5031874;28;19920;-88
2021/12/10 04:59:20;;;;;;;;;;;;;;;-2.02;100.00;94306.09;5047876;28;20400;-87
2021/12/10 05:01:47;;;;;;;;;;;;;;;-1.98;100.00;94300.34;5052243;28;19932;-87
2021/12/10 05:04:13;;;;;;;;;;;;;;;-2.04;100.00;94302.94;5048202;28;19920;-86
2021/12/10 05:06:39;;;;;;;;;;;;;;;-2.02;100.00;94294.00;5049467;28;19928;-87
2021/12/10 05:09:07;;;;;;;;;;;;;;;-2.03;100.00;94283.91;5047702;28;19921;-88
2021/12/10 05:11:33;;;;;;;;;;;;;;;-2.05;100.00;94273.78;5047240;28;19921;-88
2021/12/10 05:14:00;;;;;;;;;;;;;;;-2.15;100.00;94278.63;5049725;28;19931;-86
2021/12/10 05:16:27;;;;;;;;;;;;;;;-2.21;100.00;94276.81;5057620;28;19952;-82
2021/12/10 05:18:57;;;;;;;;;;;;;;;-2.15;100.00;94292.28;5054974;28;19947;-81
2021/12/10 05:21:23;;;;;;;;;;;;;;;-2.30;100.00;94278.84;5056234;28;19988;-80
2021/12/10 05:23:48;;;;;;;;;;;;;;;-2.26;100.00;94276.66;5056599;28;20442;-81
2021/12/10 05:26:13;;;;;;;;;;;;;;;-2.33;100.00;94275.88;5056781;28;19987;-82
2021/12/10 05:28:39;;;;;;;;;;;;;;;-2.39;100.00;94275.69;5057819;28;19913;-81
2021/12/10 05:31:06;;;;;;;;;;;;;;;-2.34;100.00;94277.66;5056331;28;19952;-79
2021/12/10 05:33:31;;;;;;;;;;;;;;;-2.43;100.00;94277.09;5053516;28;19921;-82
2021/12/10 05:36:02;;;;;;;;;;;;;;;-2.47;100.00;94273.38;5058158;28;19909;-83
2021/12/10 05:38:28;;;;;;;;;;;;;;;-2.54;100.00;94251.97;5056114;28;19920;-82
2021/12/10 05:41:04;;;;;;;;;;;;;;;-2.49;100.00;94259.88;5039973;28;19920;-79
2021/12/10 05:43:30;;;;;;;;;;;;;;;-2.50;100.00;94258.31;5056053;28;19932;-86
2021/12/10 05:45:57;;;;;;;;;;;;;;;-2.48;100.00;94250.38;5056653;28;19924;-80
2021/12/10 05:48:24;;;;;;;;;;;;;;;-2.49;100.00;94253.94;5035498;28;19921;-79
2021/12/10 05:50:50;;;;;;;;;;;;;;;-2.43;100.00;94253.91;5053247;28;19921;-79
2021/12/10 05:53:16;;;;;;;;;;;;;;;-2.48;100.00;94251.16;5048917;28;19928;-85
2021/12/10 05:55:43;;;;;;;;;;;;;;;-2.47;100.00;94250.19;5046067;28;19966;-84
2021/12/10 05:58:09;;;;;;;;;;;;;;;-2.48;100.00;94243.44;5049923;28;20016;-85
2021/12/10 06:00:36;;;;;;;;;;;;;;;-2.43;100.00;94246.19;5052803;28;19932;-84
2021/12/10 06:03:02;;;;;;;;;;;;;;;-2.44;100.00;94236.13;5051987;28;19979;-84
2021/12/10 06:05:30;;;;;;;;;;;;;;;-2.46;100.00;94232.97;5052330;28;19921;-84
2021/12/10 06:07:57;;;;;;;;;;;;;;;-2.49;100.00;94218.69;5050660;28;19921;-84
2021/12/10 06:10:23;;;;;;;;;;;;;;;-2.47;100.00;94216.72;5052544;28;19920;-84
2021/12/10 06:12:49;;;;;;;;;;;;;;;-2.48;100.00;94209.19;5055645;28;19928;-83
2021/12/10 06:15:15;;;;;;;;;;;;;;;-2.49;100.00;94210.97;5052773;28;19921;-80
2021/12/10 06:17:41;;;;;;;;;;;;;;;-2.55;100.00;94187.84;5033585;28;19931;-85
2021/12/10 06:20:09;;;;;;;;;;;;;;;-2.49;100.00;94192.16;5049921;28;20000;-83
2021/12/10 06:22:36;;;;;;;;;;;;;;;-2.55;100.00;94164.69;5051563;28;20097;-84
2021/12/10 06:25:05;;;;;;;;;;;;;;;-2.52;100.00;94172.78;5048245;28;20330;-83
2021/12/10 06:27:30;;;;;;;;;;;;;;;-2.53;100.00;94163.50;5031201;28;19935;-83
2021/12/10 06:29:57;;;;;;;;;;;;;;;-2.62;100.00;94161.34;5053955;28;20351;-87
2021/12/10 06:32:24;;;;;;;;;;;;;;;-2.65;100.00;94165.88;5048741;28;19969;-84
2021/12/10 06:34:49;;;;;;;;;;;;;;;-2.52;100.00;94164.28;5049482;28;19921;-85
2021/12/10 06:37:15;;;;;;;;;;;;;;;-2.69;100.00;94159.59;5046643;28;19986;-85
2021/12/10 06:39:43;;;;;;;;;;;;;;;-2.66;100.00;94156.59;5033778;28;19909;-83
2021/12/10 06:42:08;;;;;;;;;;;;;;;-2.68;100.00;94147.50;5038135;28;19921;-86
2021/12/10 06:44:34;;;;;;;;;;;;;;;-2.58;100.00;94155.59;5029137;28;20333;-88
2021/12/10 06:46:59;;;;;;;;;;;;;;;-2.65;100.00;94147.09;5029905;28;20308;-87
2021/12/10 06:49:25;;;;;;;;;;;;;;;-2.66;100.00;94145.50;5048058;28;19921;-89
2021/12/10 06:51:50;;;;;;;;;;;;;;;-2.61;100.00;94160.34;5027279;28;19921;-89
2021/12/10 06:54:15;;;;;;;;;;;;;;;-2.65;100.00;94158.16;5029563;28;19924;-87
2021/12/10 06:56:43;;;;;;;;;;;;;;;-2.69;100.00;94151.06;5030714;28;19935;-87
2021/12/10 06:59:09;;;;;;;;;;;;;;;-2.70;100.00;94154.63;5052066;28;19921;-87
2021/12/10 07:01:36;;;;;;;;;;;;;;;-2.73;100.00;94160.19;5030181;28;19976;-86
2021/12/10 07:04:04;;;;;;;;;;;;;;;-2.74;100.00;94161.19;5032832;28;19932;-87
2021/12/10 07:06:30;;;;;;;;;;;;;;;-2.77;100.00;94159.03;5035133;28;19909;-87
2021/12/10 07:08:56;;;;;;;;;;;;;;;-2.78;100.00;94157.44;5057468;28;19989;-84
2021/12/10 07:11:22;;;;;;;;;;;;;;;-2.84;100.00;94147.97;5052171;28;20015;-86
2021/12/10 07:13:52;;;;;;;;;;;;;;;-2.77;100.00;94134.06;5044876;28;19928;-87
2021/12/10 07:16:18;;;;;;;;;;;;;;;-2.74;100.00;94140.63;5026733;28;19921;-86
2021/12/10 07:18:44;;;;;;;;;;;;;;;-2.75;100.00;94133.88;5047832;28;19940;-84
2021/12/10 07:21:10;;;;;;;;;;;;;;;-2.74;100.00;94135.47;5047580;28;19929;-85
2021/12/10 07:23:38;;;;;;;;;;;;;;;-2.65;100.00;94141.94;5031028;28;19925;-85
2021/12/10 07:26:06;;;;;;;;;;;;;;;-2.68;100.00;94121.78;5040474;28;19984;-80
2021/12/10 07:28:31;;;;;;;;;;;;;;;-2.66;100.00;94137.78;5057248;28;19980;-83
2021/12/10 07:30:59;;;;;;;;;;;;;;;-2.65;100.00;94129.06;5040796;28;19992;-82
2021/12/10 07:33:24;;;;;;;;;;;;;;;-2.68;100.00;94143.16;5041430;28;20340;-83
2021/12/10 07:35:51;;;;;;;;;;;;;;;-2.62;100.00;94138.97;5044151;28;19920;-79
2021/12/10 07:38:17;;;;;;;;;;;;;;;-2.67;100.00;94154.22;5047360;28;19920;-78
2021/12/10 07:40:45;;;;;;;;;;;;;;;-2.62;100.00;94151.84;5025079;28;19952;-79
2021/12/10 07:43:10;;;;;;;;;;;;;;;-2.56;100.00;94135.56;5042939;28;19964;-79
2021/12/10 07:45:37;;;;;;;;;;;;;;;-2.64;100.00;94133.22;5042269;28;20039;-80
2021/12/10 07:48:08;;;;;;;;;;;;;;;-2.66;100.00;94128.28;5044636;28;19921;-78
2021/12/10 07:50:34;;;;;;;;;;;;;;;-2.65;100.00;94118.78;5025269;28;19921;-79
2021/12/10 07:53:00;;;;;;;;;;;;;;;-2.60;100.00;94095.78;5042530;28;19921;-78
2021/12/10 07:55:29;;;;;;;;;;;;;;;-2.60;100.00;94082.13;5038199;28;19932;-79
2021/12/10 07:57:55;;;;;;;;;;;;;;;-2.71;100.00;94071.50;5044467;28;19928;-84
2021/12/10 08:00:21;;;;;;;;;;;;;;;-2.83;100.00;94054.34;5040745;28;19929;-88
2021/12/10 08:02:47;;;;;;;;;;;;;;;-2.84;100.00;94039.91;5046437;28;19947;-87
2021/12/10 08:05:15;;;;;;;;;;;;;;;-2.83;100.00;94028.63;5047105;28;19944;-86
2021/12/10 08:07:41;;;;;;;;;;;;;;;-2.80;100.00;94021.25;5051606;28;19908;-81
2021/12/10 08:10:08;;;;;;;;;;;;;;;-2.72;100.00;94028.75;5052592;28;19921;-83
2021/12/10 08:12:38;;;;;;;;;;;;;;;-2.77;100.00;94030.38;5047396;28;19921;-82
2021/12/10 08:15:04;;;;;;;;;;;;;;;-2.71;100.00;94029.53;5048003;28;20346;-90
2021/12/10 08:17:32;;;;;;;;;;;;;;;-2.75;99.77;94033.50;5053660;28;19947;-89
2021/12/10 08:19:59;;;;;;;;;;;;;;;-2.81;100.00;94027.41;5037755;28;19928;-87
2021/12/10 08:22:25;;;;;;;;;;;;;;;-2.73;99.40;94034.13;5052440;28;19909;-84
2021/12/10 08:24:51;;;;;;;;;;;;;;;-2.79;99.83;94030.59;5025251;28;19931;-82
2021/12/10 08:27:18;;;;;;;;;;;;;;;-2.76;99.70;94031.94;5049321;28;20005;-82
2021/12/10 08:29:45;;;;;;;;;;;;;;;-2.66;99.13;94032.28;5047764;28;19921;-82
2021/12/10 08:32:14;;;;;;;;;;;;;;;-2.64;98.95;94040.56;5027167;28;19929;-82
2021/12/10 08:34:43;;;;;;;;;;;;;;;-2.49;98.94;94033.34;5027280;28;19948;-80
2021/12/10 08:37:09;;;;;;;;;;;;;;;-2.71;98.16;94030.31;5033215;28;19968;-76
2021/12/10 08:39:36;;;;;;;;;;;;;;;-2.88;98.19;94023.31;5005850;28;19921;-86
2021/12/10 08:42:02;;;;;;;;;;;;;;;-2.88;98.39;94029.25;5011572;28;19921;-85
2021/12/10 08:44:28;;;;;;;;;;;;;;;-2.72;97.90;94033.13;5030666;28;19922;-84
2021/12/10 08:46:54;;;;;;;;;;;;;;;-2.47;98.29;94021.09;5036570;28;19980;-83
2021/12/10 08:49:20;;;;;;;;;;;;;;;-2.52;97.07;94018.34;5041601;28;19933;-82
2021/12/10 08:51:47;;;;;;;;;;;;;;;-2.33;97.16;94010.69;5050683;28;19924;-80
2021/12/10 08:54:14;;;;;;;;;;;;;;;-2.21;97.05;94022.66;5050646;28;19908;-91
2021/12/10 08:56:41;;;;;;;;;;;;;;;-2.39;96.57;94018.25;5038342;28;19980;-83
2021/12/10 08:59:10;;;;;;;;;;;;;;;-2.39;96.73;94010.50;5036473;28;19909;-83
2021/12/10 09:01:39;;;;;;;;;;;;;;;-2.29;96.72;94007.47;5019391;28;19925;-84
2021/12/10 09:04:06;;;;;;;;;;;;;;;-2.34;96.74;93998.81;5036627;28;19909;-82
2021/12/10 09:06:33;;;;;;;;;;;;;;;-2.30;96.53;93997.41;5019235;28;19909;-77
2021/12/10 09:08:59;;;;;;;;;;;;;;;-2.30;95.14;94007.69;5053097;28;19909;-77
2021/12/10 09:11:25;;;;;;;;;;;;;;;-2.27;94.24;94004.69;5054294;28;20324;-93
2021/12/10 09:14:07;;;;;;;;;;;;;;;-2.03;94.32;93998.75;5030643;28;19932;-88
2021/12/10 09:16:39;;;;;;;;;;;;;;;-2.39;93.51;94002.00;5042396;28;19921;-88
2021/12/10 09:19:06;;;;;;;;;;;;;;;-1.94;93.49;94004.41;5048437;28;19924;-88
2021/12/10 09:21:32;;;;;;;;;;;;;;;-1.72;94.47;94008.16;5047854;28;19980;-86
2021/12/10 09:24:03;;;;;;;;;;;;;;;-1.70;92.13;94020.84;5037162;28;19990;-76
2021/12/10 09:26:31;;;;;;;;;;;;;;;-1.60;91.54;94008.25;5038152;28;19940;-79
2021/12/10 09:28:57;;;;;;;;;;;;;;;-1.61;91.01;94019.56;5021849;28;19925;-78
2021/12/10 09:31:24;;;;;;;;;;;;;;;-1.67;89.93;94015.25;5043764;28;19937;-79
2021/12/10 09:33:55;;;;;;;;;;;;;;;-1.47;91.03;94008.09;5055597;28;19921;-78
2021/12/10 09:36:21;;;;;;;;;;;;;;;-1.49;88.68;94007.53;5047712;28;19928;-78
2021/12/10 09:38:47;;;;;;;;;;;;;;;-1.74;88.35;94014.53;5044105;28;19921;-78
2021/12/10 09:41:12;;;;;;;;;;;;;;;-1.79;88.54;94004.06;5043975;28;20016;-79
2021/12/10 09:43:39;;;;;;;;;;;;;;;-1.58;89.02;94003.66;5025534;28;19956;-78
2021/12/10 09:46:04;;;;;;;;;;;;;;;-1.48;88.41;94001.38;5043329;28;19920;-80
2021/12/10 09:48:30;;;;;;;;;;;;;;;-1.55;87.64;94003.25;5048053;28;19932;-79
2021/12/10 09:51:00;;;;;;;;;;;;;;;-1.45;88.63;93997.59;5024364;28;19921;-81
2021/12/10 09:53:27;;;;;;;;;;;;;;;-1.33;88.16;93988.13;5043417;28;20312;-78
2021/12/10 09:55:53;;;;;;;;;;;;;;;-1.39;88.45;93984.63;5029108;28;19955;-79
2021/12/10 09:58:20;;;;;;;;;;;;;;;-1.70;86.75;93959.75;5044003;28;19933;-79
2021/12/10 10:00:47;;;;;;;;;;;;;;;-1.66;87.24;93950.59;5049431;28;20376;-78
2021/12/10 10:03:14;;;;;;;;;;;;;;;-1.68;87.80;93956.97;5046098;28;19928;-78
2021/12/10 10:05:43;;;;;;;;;;;;;;;-1.72;86.65;93959.19;5043271;28;20365;-79
2021/12/10 10:08:12;;;;;;;;;;;;;;;-1.61;88.60;93955.13;5042760;28;20361;-79
2021/12/10 10:10:40;;;;;;;;;;;;;;;-1.64;88.82;93952.97;5048302;28;19963;-79
2021/12/10 10:13:08;;;;;;;;;;;;;;;-2.04;88.55;93943.06;5027971;28;19921;-79
2021/12/10 10:15:35;;;;;;;;;;;;;;;-1.88;90.86;93921.13;5047771;28;19944;-79
2021/12/10 10:18:02;;;;;;;;;;;;;;;-2.13;85.99;93929.69;5048815;28;19957;-79
2021/12/10 10:20:29;;;;;;;;;;;;;;;-2.04;87.11;93916.53;5046805;28;19996;-78
2021/12/10 10:22:54;;;;;;;;;;;;;;;-1.95;89.04;93916.00;5031650;28;19921;-79
2021/12/10 10:25:23;;;;;;;;;;;;;;;-1.86;88.13;93919.88;5046988;28;20432;-80
2021/12/10 10:27:49;;;;;;;;;;;;;;;-1.99;86.89;93914.88;5028619;28;19928;-79
2021/12/10 10:30:17;;;;;;;;;;;;;;;-1.87;86.42;93918.31;5025182;28;19925;-78
2021/12/10 10:32:45;;;;;;;;;;;;;;;-1.75;86.25;93915.81;5028726;28;19946;-79
2021/12/10 10:35:16;;;;;;;;;;;;;;;-1.72;86.39;93906.84;5049692;28;19921;-79
2021/12/10 10:37:42;;;;;;;;;;;;;;;-1.78;86.39;93903.34;5044385;28;19956;-80
2021/12/10 10:40:10;;;;;;;;;;;;;;;-1.71;87.04;93905.88;5044284;28;19987;-80
2021/12/10 10:42:37;;;;;;;;;;;;;;;-1.60;86.79;93899.97;5044510;28;19971;-80
2021/12/10 10:45:04;;;;;;;;;;;;;;;-1.56;87.29;93903.69;5045967;28;19992;-82
2021/12/10 10:47:30;;;;;;;;;;;;;;;-1.46;85.81;93909.09;5028240;28;19921;-81
2021/12/10 10:49:59;;;;;;;;;;;;;;;-1.18;85.71;93905.19;5057958;23;19921;-81
2021/12/10 10:52:29;;;;;;;;;;;;;;;-1.27;85.22;93896.19;5047162;28;19921;-79
2021/12/10 10:54:57;;;;;;;;;;;;;;;-1.35;85.45;93902.44;5046652;28;19955;-80
2021/12/10 10:57:25;;;;;;;;;;;;;;;-1.23;85.12;93907.66;5050313;28;19932;-80
2021/12/10 10:59:56;;;;;;;;;;;;;;;-1.23;84.83;93905.06;5047066;28;20305;-81
2021/12/10 11:02:23;;;;;;;;;;;;;;;-1.31;84.34;93895.84;5030356;28;19968;-81
2021/12/10 11:04:52;;;;;;;;;;;;;;;-1.16;83.73;93905.75;5030439;28;19931;-81
2021/12/10 11:07:20;;;;;;;;;;;;;;;-1.11;84.38;93900.72;5053316;28;19921;-81
2021/12/10 11:09:47;;;;;;;;;;;;;;;-0.90;83.30;93896.88;5054866;28;19935;-81
2021/12/10 11:12:14;;;;;;;;;;;;;;;-0.94;83.77;93899.09;5030102;28;19925;-81
2021/12/10 11:14:41;;;;;;;;;;;;;;;-0.91;82.38;93900.47;5047525;28;19970;-81
2021/12/10 11:17:09;;;;;;;;;;;;;;;-1.09;81.40;93901.28;5046189;28;20146;-80
2021/12/10 11:19:35;;;;;;;;;;;;;;;-1.00;83.79;93899.97;5029819;28;19928;-81
2021/12/10 11:22:01;;;;;;;;;;;;;;;-1.06;84.98;93898.28;5046803;28;19921;-81
2021/12/10 11:24:34;;;;;;;;;;;;;;;-0.91;84.04;93903.03;5047972;28;19932;-80
2021/12/10 11:27:03;;;;;;;;;;;;;;;-0.97;84.32;93896.97;5045588;28;19924;-81
2021/12/10 11:29:35;;;;;;;;;;;;;;;-0.83;84.51;93892.38;5030607;28;19932;-81
2021/12/10 11:32:02;;;;;;;;;;;;;;;-0.76;84.42;93892.28;5046136;28;19921;-82
2021/12/10 11:34:43;;;;;;;;;;;;;;;-0.83;83.48;93908.66;5049454;28;19909;-81
2021/12/10 11:37:09;;;;;;;;;;;;;;;-0.96;84.42;93908.84;5032606;28;19920;-82
2021/12/10 11:39:44;;;;;;;;;;;;;;;-0.87;84.72;93888.66;5029292;28;19925;-81
2021/12/10 11:42:43;;;;;;;;;;;;;;;-0.87;84.65;93897.19;5046901;28;19927;-81
2021/12/10 11:45:31;;;;;;;;;;;;;;;-0.71;84.76;93900.13;4970556;29;19923;-81
2021/12/10 11:48:06;;;;;;;;;;;;;;;-0.91;85.28;93900.47;5049316;28;20004;-80
2021/12/10 11:50:35;;;;;;;;;;;;;;;-0.88;84.93;93898.19;5053458;28;20288;-82
2021/12/10 11:53:02;;;;;;;;;;;;;;;-0.83;85.85;93908.66;5047340;28;19948;-83
2021/12/10 11:55:27;;;;;;;;;;;;;;;-0.81;86.32;93893.75;5027177;28;20233;-82
2021/12/10 11:57:53;;;;;;;;;;;;;;;-0.90;85.47;93896.88;5027494;28;19971;-82
2021/12/10 12:00:19;;;;;;;;;;;;;;;-0.68;84.48;93894.53;5046693;28;19921;-83
2021/12/10 12:02:48;;;;;;;;;;;;;;;-0.65;84.74;93894.09;5047891;28;19921;-82
2021/12/10 12:05:16;;;;;;;;;;;;;;;-0.74;84.73;93890.28;5047299;28;19921;-83
2021/12/10 12:07:43;;;;;;;;;;;;;;;-0.80;85.01;93882.41;5047535;28;19975;-82
2021/12/10 12:10:18;;;;;;;;;;;;;;;-0.67;84.90;93880.63;5047396;28;19992;-82
2021/12/10 12:12:48;;;;;;;;;;;;;;;-0.51;84.90;93879.19;5028858;28;19924;-82
2021/12/10 12:15:17;;;;;;;;;;;;;;;-0.61;85.48;93892.63;5045630;28;19960;-81
2021/12/10 12:17:44;;;;;;;;;;;;;;;-0.27;86.64;93897.03;5045698;28;19940;-82
2021/12/10 12:20:29;;;;;;;;;;;;;;;-0.49;86.99;93893.41;5045237;28;19944;-82
2021/12/10 12:25:41;;;;;;;;;;;;;;;-0.66;90.01;93877.03;5047973;28;20375;-83
2021/12/10 12:28:08;;;;;;;;;;;;;;;-0.85;89.14;93879.72;5049565;28;19921;-82
2021/12/10 12:30:48;;;;;;;;;;;;;;;-0.92;89.88;93878.22;5048315;28;19947;-84
2021/12/10 12:33:13;;;;;;;;;;;;;;;-0.91;90.41;93859.16;5029358;28;19937;-84
2021/12/10 12:35:41;;;;;;;;;;;;;;;-0.98;90.71;93869.56;5054681;28;19932;-84
2021/12/10 12:38:10;;;;;;;;;;;;;;;-1.00;92.64;93863.84;5047751;28;19929;-82
2021/12/10 12:40:36;;;;;;;;;;;;;;;-1.05;93.23;93853.41;5049130;28;19909;-83
2021/12/10 12:43:05;;;;;;;;;;;;;;;-0.75;93.41;93873.19;5034379;28;19946;-83
2021/12/10 12:45:31;;;;;;;;;;;;;;;-1.10;93.00;93853.28;5048387;28;20215;-83
2021/12/10 12:47:57;;;;;;;;;;;;;;;-1.00;94.85;93861.28;5030005;28;19920;-83
2021/12/10 12:50:24;;;;;;;;;;;;;;;-0.91;94.48;93866.91;5030333;28;19947;-85
2021/12/10 12:52:51;;;;;;;;;;;;;;;-0.93;94.17;93871.50;5047986;28;19927;-87
2021/12/10 12:55:34;;;;;;;;;;;;;;;-0.93;94.69;93864.53;5045895;28;20403;-84
2021/12/10 12:58:15;;;;;;;;;;;;;;;-0.95;95.20;93848.50;5045954;28;19925;-84